sensor_id;sensor_type;location;lat;lon;timestamp;pressure;altitude;pressure_sealevel;temperature;humidity
78014;BME280;67222;50.182;8.734;2023-04-25T04:31:34;99903.94;;;6.82;79.69
78014;BME280;67222;50.182;8.734;2023-04-25T04:34:00;99920.41;;;6.77;80.50
78014;BME280;67222;50.182;8.734;2023-04-25T04:36:26;99919.38;;;6.72;79.12
78014;BME280;67222;50.182;8.734;2023-04-25T04:38:52;99921.66;;;6.81;79.83
78014;BME280;67222;50.182;8.734;2023-04-25T04:41:18;99920.63;;;6.76;78.50
78014;BME280;67222;50.182;8.734;2023-04-25T04:43:44;99923.47;;;6.74;80.15
78014;BME280;67222;50.182;8.734;2023-04-25T04:46:10;99918.97;;;6.75;78.92
78014;BME280;67222;50.182;8.734;2023-04-25T04:48:35;99927.13;;;6.73;80.60
78014;BME280;67222;50.182;8.734;2023-04-25T04:51:01;99929.16;;;6.71;81.30
78014;BME280;67222;50.182;8.734;2023-04-25T04:53:27;99928.31;;;6.71;81.90
78014;BME280;67222;50.182;8.734;2023-04-25T04:55:52;99925.47;;;6.72;82.40
78014;BME280;67222;50.182;8.734;2023-04-25T04:58:18;99923.50;;;6.81;78.75
78014;BME280;67222;50.182;8.734;2023-04-25T05:00:43;99936.31;;;6.77;80.21
78014;BME280;67222;50.182;8.734;2023-04-25T05:03:08;99938.72;;;6.72;81.42
78014;BME280;67222;50.182;8.734;2023-04-25T05:05:34;99941.19;;;6.74;81.64
78014;BME280;67222;50.182;8.734;2023-04-25T05:07:59;99946.69;;;6.72;81.48
78014;BME280;67222;50.182;8.734;2023-04-25T05:10:25;99952.78;;;6.73;79.35
78014;BME280;67222;50.182;8.734;2023-04-25T05:12:50;99958.72;;;6.75;80.45
78014;BME280;67222;50.182;8.734;2023-04-25T05:15:16;99955.94;;;6.83;81.49
78014;BME280;67222;50.182;8.734;2023-04-25T05:17:41;99959.19;;;6.85;77.96
78014;BME280;67222;50.182;8.734;2023-04-25T05:20:07;99966.47;;;6.76;78.54
78014;BME280;67222;50.182;8.734;2023-04-25T05:22:34;99967.09;;;6.78;81.67
78014;BME280;67222;50.182;8.734;2023-04-25T05:24:59;99954.09;;;6.83;77.28
78014;BME280;67222;50.182;8.734;2023-04-25T05:27:25;99954.88;;;6.77;78.88
78014;BME280;67222;50.182;8.734;2023-04-25T05:29:50;99954.44;;;6.74;77.07
78014;BME280;67222;50.182;8.734;2023-04-25T05:32:16;99960.94;;;6.71;79.41
78014;BME280;67222;50.182;8.734;2023-04-25T05:34:41;99963.00;;;6.76;79.57
78014;BME280;67222;50.182;8.734;2023-04-25T05:37:07;99959.97;;;6.79;79.24
78014;BME280;67222;50.182;8.734;2023-04-25T05:39:32;99964.69;;;6.83;79.46
78014;BME280;67222;50.182;8.734;2023-04-25T05:41:57;99965.78;;;6.89;81.52
78014;BME280;67222;50.182;8.734;2023-04-25T05:44:23;99963.59;;;6.99;78.96
78014;BME280;67222;50.182;8.734;2023-04-25T05:46:48;99964.00;;;6.96;76.78
78014;BME280;67222;50.182;8.734;2023-04-25T05:49:13;99961.72;;;6.93;77.27
78014;BME280;67222;50.182;8.734;2023-04-25T05:51:39;99962.34;;;6.95;78.30
78014;BME280;67222;50.182;8.734;2023-04-25T05:54:05;99965.31;;;7.07;75.63
78014;BME280;67222;50.182;8.734;2023-04-25T05:56:30;99976.91;;;7.06;77.67
78014;BME280;67222;50.182;8.734;2023-04-25T05:58:55;99964.53;;;7.13;74.49
78014;BME280;67222;50.182;8.734;2023-04-25T06:01:22;99978.84;;;7.18;77.17
78014;BME280;67222;50.182;8.734;2023-04-25T06:03:47;99977.16;;;7.11;76.70
78014;BME280;67222;50.182;8.734;2023-04-25T06:06:13;99980.13;;;7.01;75.96
78014;BME280;67222;50.182;8.734;2023-04-25T06:08:38;99977.59;;;7.14;75.67
78014;BME280;67222;50.182;8.734;2023-04-25T06:11:04;99971.06;;;7.10;77.95
78014;BME280;67222;50.182;8.734;2023-04-25T06:13:29;99966.28;;;7.27;73.25
78014;BME280;67222;50.182;8.734;2023-04-25T06:15:55;99973.78;;;7.23;75.20
78014;BME280;67222;50.182;8.734;2023-04-25T06:18:20;99973.78;;;7.23;76.42
78014;BME280;67222;50.182;8.734;2023-04-25T06:20:46;99967.91;;;7.28;77.46
78014;BME280;67222;50.182;8.734;2023-04-25T06:23:11;99967.72;;;7.29;74.01
78014;BME280;67222;50.182;8.734;2023-04-25T06:25:36;99976.94;;;7.34;73.32
78014;BME280;67222;50.182;8.734;2023-04-25T06:28:02;99971.38;;;7.28;72.28
78014;BME280;67222;50.182;8.734;2023-04-25T06:30:27;99961.53;;;7.22;75.35
78014;BME280;67222;50.182;8.734;2023-04-25T06:32:52;99956.84;;;7.24;72.24
78014;BME280;67222;50.182;8.734;2023-04-25T06:35:18;99963.38;;;7.22;74.64
78014;BME280;67222;50.182;8.734;2023-04-25T06:37:44;99967.47;;;7.24;77.03
78014;BME280;67222;50.182;8.734;2023-04-25T06:40:09;99958.16;;;7.35;75.96
78014;BME280;67222;50.182;8.734;2023-04-25T06:42:35;99961.22;;;7.32;74.82
78014;BME280;67222;50.182;8.734;2023-04-25T06:45:00;99961.00;;;7.34;72.21
78014;BME280;67222;50.182;8.734;2023-04-25T06:47:26;99962.69;;;7.41;75.35
78014;BME280;67222;50.182;8.734;2023-04-25T06:49:51;99965.31;;;7.35;74.06
78014;BME280;67222;50.182;8.734;2023-04-25T06:52:16;99960.22;;;7.40;73.68
78014;BME280;67222;50.182;8.734;2023-04-25T06:54:43;99971.31;;;7.50;73.75
78014;BME280;67222;50.182;8.734;2023-04-25T06:57:08;99968.88;;;7.48;73.90
78014;BME280;67222;50.182;8.734;2023-04-25T06:59:33;99970.53;;;7.56;72.12
78014;BME280;67222;50.182;8.734;2023-04-25T07:01:59;99982.03;;;7.63;71.29
78014;BME280;67222;50.182;8.734;2023-04-25T07:04:24;99984.50;;;7.71;69.97
78014;BME280;67222;50.182;8.734;2023-04-25T07:06:50;99986.75;;;7.74;69.87
78014;BME280;67222;50.182;8.734;2023-04-25T07:09:15;99989.41;;;7.74;72.44
78014;BME280;67222;50.182;8.734;2023-04-25T07:11:40;99991.06;;;7.75;70.98
78014;BME280;67222;50.182;8.734;2023-04-25T07:14:06;99988.69;;;7.87;71.76
78014;BME280;67222;50.182;8.734;2023-04-25T07:16:31;99992.44;;;8.06;71.80
78014;BME280;67222;50.182;8.734;2023-04-25T07:18:56;99998.59;;;8.13;69.62
78014;BME280;67222;50.182;8.734;2023-04-25T07:21:22;100003.97;;;8.26;70.13
78014;BME280;67222;50.182;8.734;2023-04-25T07:23:47;99982.31;;;8.29;69.45
78014;BME280;67222;50.182;8.734;2023-04-25T07:26:12;99994.22;;;8.40;67.80
78014;BME280;67222;50.182;8.734;2023-04-25T07:28:38;99999.34;;;8.48;68.47
78014;BME280;67222;50.182;8.734;2023-04-25T07:31:03;100000.16;;;8.48;68.06
78014;BME280;67222;50.182;8.734;2023-04-25T07:33:29;99990.16;;;8.37;68.38
78014;BME280;67222;50.182;8.734;2023-04-25T07:35:54;99993.75;;;8.30;67.97
78014;BME280;67222;50.182;8.734;2023-04-25T07:38:20;100008.47;;;8.32;67.14
78014;BME280;67222;50.182;8.734;2023-04-25T07:40:47;100008.53;;;8.39;70.15
78014;BME280;67222;50.182;8.734;2023-04-25T07:43:13;100002.00;;;8.48;69.13
78014;BME280;67222;50.182;8.734;2023-04-25T07:45:42;100006.91;;;8.51;66.98
78014;BME280;67222;50.182;8.734;2023-04-25T07:48:07;100010.63;;;8.57;67.90
78014;BME280;67222;50.182;8.734;2023-04-25T07:50:32;100008.34;;;8.54;68.86
78014;BME280;67222;50.182;8.734;2023-04-25T07:52:58;100013.66;;;8.54;69.78
78014;BME280;67222;50.182;8.734;2023-04-25T07:55:23;100015.97;;;8.63;68.31
78014;BME280;67222;50.182;8.734;2023-04-25T07:57:48;100019.88;;;8.87;65.33
78014;BME280;67222;50.182;8.734;2023-04-25T08:00:14;100020.28;;;8.91;64.66
78014;BME280;67222;50.182;8.734;2023-04-25T08:02:40;100021.50;;;8.88;65.01
78014;BME280;67222;50.182;8.734;2023-04-25T08:05:05;100026.25;;;8.93;64.79
78014;BME280;67222;50.182;8.734;2023-04-25T08:07:33;100025.59;;;8.84;65.73
78014;BME280;67222;50.182;8.734;2023-04-25T08:09:58;100034.41;;;8.91;64.17
78014;BME280;67222;50.182;8.734;2023-04-25T08:12:24;100041.34;;;8.86;62.56
78014;BME280;67222;50.182;8.734;2023-04-25T08:14:50;100036.84;;;8.79;62.54
78014;BME280;67222;50.182;8.734;2023-04-25T08:17:15;100041.75;;;8.83;65.33
78014;BME280;67222;50.182;8.734;2023-04-25T08:19:40;100049.94;;;8.81;64.88
78014;BME280;67222;50.182;8.734;2023-04-25T08:22:06;100042.38;;;8.78;66.28
78014;BME280;67222;50.182;8.734;2023-04-25T08:24:31;100052.41;;;8.83;66.04
78014;BME280;67222;50.182;8.734;2023-04-25T08:26:56;100052.44;;;8.96;66.92
78014;BME280;67222;50.182;8.734;2023-04-25T08:29:24;100054.06;;;9.03;67.61
78014;BME280;67222;50.182;8.734;2023-04-25T08:31:50;100056.53;;;9.25;65.37
78014;BME280;67222;50.182;8.734;2023-04-25T08:34:17;100055.13;;;9.35;62.94
78014;BME280;67222;50.182;8.734;2023-04-25T08:36:43;100067.41;;;9.36;63.45
78014;BME280;67222;50.182;8.734;2023-04-25T08:39:08;100060.66;;;9.34;63.03
78014;BME280;67222;50.182;8.734;2023-04-25T08:41:35;100064.34;;;9.33;63.23
78014;BME280;67222;50.182;8.734;2023-04-25T08:44:03;100068.41;;;9.35;62.32
78014;BME280;67222;50.182;8.734;2023-04-25T08:46:28;100062.69;;;9.38;61.45
78014;BME280;67222;50.182;8.734;2023-04-25T08:49:00;100067.19;;;9.38;63.43
78014;BME280;67222;50.182;8.734;2023-04-25T08:51:26;100065.53;;;9.44;60.55
78014;BME280;67222;50.182;8.734;2023-04-25T08:54:08;100071.50;;;9.52;59.89
78014;BME280;67222;50.182;8.734;2023-04-25T08:56:34;100059.41;;;9.43;62.22
78014;BME280;67222;50.182;8.734;2023-04-25T08:59:01;100073.53;;;9.57;60.53
78014;BME280;67222;50.182;8.734;2023-04-25T09:01:27;100073.34;;;9.52;61.33
78014;BME280;67222;50.182;8.734;2023-04-25T09:03:52;100089.06;;;9.66;61.22
78014;BME280;67222;50.182;8.734;2023-04-25T09:06:19;100088.06;;;9.74;60.15
78014;BME280;67222;50.182;8.734;2023-04-25T09:08:44;100090.50;;;9.76;63.45
78014;BME280;67222;50.182;8.734;2023-04-25T09:11:10;100091.31;;;9.83;63.23
78014;BME280;67222;50.182;8.734;2023-04-25T09:13:35;100096.44;;;9.84;62.21
78014;BME280;67222;50.182;8.734;2023-04-25T09:16:01;100094.19;;;9.88;62.59
78014;BME280;67222;50.182;8.734;2023-04-25T09:18:31;100105.25;;;10.05;62.83
78014;BME280;67222;50.182;8.734;2023-04-25T09:21:07;100110.16;;;10.08;62.52
78014;BME280;67222;50.182;8.734;2023-04-25T09:23:45;100102.34;;;10.13;61.35
78014;BME280;67222;50.182;8.734;2023-04-25T09:26:14;100114.00;;;10.18;61.35
78014;BME280;67222;50.182;8.734;2023-04-25T09:28:40;100108.47;;;10.13;62.26
78014;BME280;67222;50.182;8.734;2023-04-25T09:31:05;100112.59;;;10.22;64.41
78014;BME280;67222;50.182;8.734;2023-04-25T09:33:32;100109.31;;;10.27;62.75
78014;BME280;67222;50.182;8.734;2023-04-25T09:36:03;100109.06;;;10.35;64.71
78014;BME280;67222;50.182;8.734;2023-04-25T09:38:30;100117.84;;;10.49;62.70
78014;BME280;67222;50.182;8.734;2023-04-25T09:40:56;100122.72;;;10.58;61.74
78014;BME280;67222;50.182;8.734;2023-04-25T09:43:23;100122.47;;;10.73;61.65
78014;BME280;67222;50.182;8.734;2023-04-25T09:45:50;100122.63;;;10.78;60.46
78014;BME280;67222;50.182;8.734;2023-04-25T09:48:17;100125.50;;;10.83;58.66
78014;BME280;67222;50.182;8.734;2023-04-25T09:50:44;100133.25;;;10.91;58.67
78014;BME280;67222;50.182;8.734;2023-04-25T09:53:09;100130.34;;;11.00;56.56
78014;BME280;67222;50.182;8.734;2023-04-25T09:55:35;100129.41;;;10.81;57.26
78014;BME280;67222;50.182;8.734;2023-04-25T09:58:04;100136.19;;;10.77;60.64
78014;BME280;67222;50.182;8.734;2023-04-25T10:00:33;100130.84;;;10.83;55.85
78014;BME280;67222;50.182;8.734;2023-04-25T10:03:05;100135.38;;;10.76;57.06
78014;BME280;67222;50.182;8.734;2023-04-25T10:05:32;100138.59;;;10.91;56.25
78014;BME280;67222;50.182;8.734;2023-04-25T10:08:02;100138.78;;;10.90;60.67
78014;BME280;67222;50.182;8.734;2023-04-25T10:10:29;100128.66;;;11.05;58.60
78014;BME280;67222;50.182;8.734;2023-04-25T10:12:58;100141.41;;;11.03;54.79
78014;BME280;67222;50.182;8.734;2023-04-25T10:15:23;100135.78;;;11.18;57.44
78014;BME280;67222;50.182;8.734;2023-04-25T10:17:50;100140.31;;;11.11;57.47
78014;BME280;67222;50.182;8.734;2023-04-25T10:20:15;100144.69;;;11.05;58.38
78014;BME280;67222;50.182;8.734;2023-04-25T10:22:45;100155.19;;;10.93;58.18
78014;BME280;67222;50.182;8.734;2023-04-25T10:25:11;100169.38;;;10.87;59.89
78014;BME280;67222;50.182;8.734;2023-04-25T10:27:38;100176.03;;;10.65;59.87
78014;BME280;67222;50.182;8.734;2023-04-25T10:30:14;100188.78;;;10.63;60.74
78014;BME280;67222;50.182;8.734;2023-04-25T10:32:42;100186.97;;;10.44;59.69
78014;BME280;67222;50.182;8.734;2023-04-25T10:35:17;100185.53;;;10.41;59.58
78014;BME280;67222;50.182;8.734;2023-04-25T10:40:24;100182.25;;;10.19;61.24
78014;BME280;67222;50.182;8.734;2023-04-25T10:42:52;100183.31;;;10.25;61.41
78014;BME280;67222;50.182;8.734;2023-04-25T10:45:17;100184.53;;;10.22;60.21
78014;BME280;67222;50.182;8.734;2023-04-25T10:47:45;100176.94;;;10.13;59.99
78014;BME280;67222;50.182;8.734;2023-04-25T10:50:11;100194.16;;;10.10;59.03
78014;BME280;67222;50.182;8.734;2023-04-25T10:52:38;100195.38;;;9.94;59.68
78014;BME280;67222;50.182;8.734;2023-04-25T10:55:04;100199.88;;;10.00;61.67
78014;BME280;67222;50.182;8.734;2023-04-25T10:57:42;100191.91;;;10.07;62.26
78014;BME280;67222;50.182;8.734;2023-04-25T11:02:45;100197.00;;;10.48;59.59
78014;BME280;67222;50.182;8.734;2023-04-25T11:05:22;100195.34;;;10.54;58.03
78014;BME280;67222;50.182;8.734;2023-04-25T11:07:53;100201.50;;;10.54;57.25
78014;BME280;67222;50.182;8.734;2023-04-25T11:10:20;100196.78;;;10.50;54.71
78014;BME280;67222;50.182;8.734;2023-04-25T11:12:46;100192.53;;;10.42;56.20
78014;BME280;67222;50.182;8.734;2023-04-25T11:15:12;100199.66;;;10.55;57.94
78014;BME280;67222;50.182;8.734;2023-04-25T11:17:38;100195.56;;;10.46;52.74
78014;BME280;67222;50.182;8.734;2023-04-25T11:20:06;100199.47;;;10.37;56.43
78014;BME280;67222;50.182;8.734;2023-04-25T11:22:34;100190.06;;;10.34;55.22
78014;BME280;67222;50.182;8.734;2023-04-25T11:25:04;100191.09;;;10.26;54.46
78014;BME280;67222;50.182;8.734;2023-04-25T11:27:30;100197.44;;;10.32;56.40
78014;BME280;67222;50.182;8.734;2023-04-25T11:29:55;100186.75;;;10.39;57.03
78014;BME280;67222;50.182;8.734;2023-04-25T11:32:20;100186.72;;;10.65;54.87
78014;BME280;67222;50.182;8.734;2023-04-25T11:34:46;100172.97;;;10.61;54.29
78014;BME280;67222;50.182;8.734;2023-04-25T11:37:11;100180.47;;;10.84;54.13
78014;BME280;67222;50.182;8.734;2023-04-25T11:39:37;100184.31;;;10.95;53.52
78014;BME280;67222;50.182;8.734;2023-04-25T11:42:03;100188.25;;;10.92;53.29
78014;BME280;67222;50.182;8.734;2023-04-25T11:44:29;100198.22;;;11.10;53.55
78014;BME280;67222;50.182;8.734;2023-04-25T11:46:55;100195.16;;;11.07;52.81
78014;BME280;67222;50.182;8.734;2023-04-25T11:49:20;100195.13;;;11.13;53.99
78014;BME280;67222;50.182;8.734;2023-04-25T11:51:48;100203.16;;;11.07;50.23
78014;BME280;67222;50.182;8.734;2023-04-25T11:54:14;100201.69;;;11.17;50.30
78014;BME280;67222;50.182;8.734;2023-04-25T11:56:45;100209.06;;;11.15;49.75
78014;BME280;67222;50.182;8.734;2023-04-25T11:59:11;100211.00;;;10.95;49.32
78014;BME280;67222;50.182;8.734;2023-04-25T12:01:39;100210.66;;;10.85;49.85
78014;BME280;67222;50.182;8.734;2023-04-25T12:04:12;100225.84;;;10.71;50.53
78014;BME280;67222;50.182;8.734;2023-04-25T12:06:38;100219.94;;;10.63;51.23
78014;BME280;67222;50.182;8.734;2023-04-25T12:09:07;100231.84;;;10.53;52.05
78014;BME280;67222;50.182;8.734;2023-04-25T12:11:44;100223.47;;;10.43;51.67
78014;BME280;67222;50.182;8.734;2023-04-25T12:14:10;100231.66;;;10.35;52.46
78014;BME280;67222;50.182;8.734;2023-04-25T12:16:46;100234.56;;;10.27;53.72
78014;BME280;67222;50.182;8.734;2023-04-25T12:19:15;100235.78;;;10.24;54.58
78014;BME280;67222;50.182;8.734;2023-04-25T12:21:42;100246.47;;;10.24;54.05
78014;BME280;67222;50.182;8.734;2023-04-25T12:24:14;100243.34;;;10.14;52.53
78014;BME280;67222;50.182;8.734;2023-04-25T12:27:01;100239.88;;;10.07;53.32
78014;BME280;67222;50.182;8.734;2023-04-25T12:29:28;100242.09;;;10.03;54.64
78014;BME280;67222;50.182;8.734;2023-04-25T12:31:55;100246.19;;;9.93;57.15
78014;BME280;67222;50.182;8.734;2023-04-25T12:34:21;100253.56;;;9.97;56.21
78014;BME280;67222;50.182;8.734;2023-04-25T12:36:48;100250.31;;;10.09;54.46
78014;BME280;67222;50.182;8.734;2023-04-25T12:39:17;100250.28;;;10.02;55.39
78014;BME280;67222;50.182;8.734;2023-04-25T12:41:45;100242.94;;;10.11;57.10
78014;BME280;67222;50.182;8.734;2023-04-25T12:44:11;100244.16;;;10.15;56.63
78014;BME280;67222;50.182;8.734;2023-04-25T12:46:36;100251.16;;;10.22;56.11
78014;BME280;67222;50.182;8.734;2023-04-25T12:49:03;100249.09;;;10.38;55.47
78014;BME280;67222;50.182;8.734;2023-04-25T12:51:29;100240.88;;;10.52;54.37
78014;BME280;67222;50.182;8.734;2023-04-25T12:53:54;100243.28;;;10.80;53.92
78014;BME280;67222;50.182;8.734;2023-04-25T12:56:19;100248.34;;;11.02;50.69
78014;BME280;67222;50.182;8.734;2023-04-25T12:58:45;100243.00;;;11.02;49.21
78014;BME280;67222;50.182;8.734;2023-04-25T13:01:10;100251.63;;;11.04;51.56
78014;BME280;67222;50.182;8.734;2023-04-25T13:03:37;100243.78;;;11.09;50.94
78014;BME280;67222;50.182;8.734;2023-04-25T13:06:03;100248.47;;;11.20;46.61
78014;BME280;67222;50.182;8.734;2023-04-25T13:08:28;100249.28;;;11.20;52.98
78014;BME280;67222;50.182;8.734;2023-04-25T13:10:53;100253.19;;;11.25;50.29
78014;BME280;67222;50.182;8.734;2023-04-25T13:13:18;100249.94;;;11.16;52.00
78014;BME280;67222;50.182;8.734;2023-04-25T13:15:44;100256.50;;;11.20;52.32
78014;BME280;67222;50.182;8.734;2023-04-25T13:18:09;100251.38;;;11.12;49.70
78014;BME280;67222;50.182;8.734;2023-04-25T13:20:35;100251.66;;;10.97;49.85
78014;BME280;67222;50.182;8.734;2023-04-25T13:23:00;100247.78;;;10.86;53.52
78014;BME280;67222;50.182;8.734;2023-04-25T13:25:26;100253.75;;;10.75;53.34
78014;BME280;67222;50.182;8.734;2023-04-25T13:27:51;100251.28;;;10.80;53.10
78014;BME280;67222;50.182;8.734;2023-04-25T13:30:16;100253.56;;;10.70;48.67
78014;BME280;67222;50.182;8.734;2023-04-25T13:32:42;100251.34;;;10.60;51.08
78014;BME280;67222;50.182;8.734;2023-04-25T13:35:09;100252.34;;;10.66;52.39
78014;BME280;67222;50.182;8.734;2023-04-25T13:37:35;100248.44;;;10.69;52.87
78014;BME280;67222;50.182;8.734;2023-04-25T13:40:08;100255.38;;;10.76;51.38
78014;BME280;67222;50.182;8.734;2023-04-25T13:42:35;100261.31;;;10.85;47.77
78014;BME280;67222;50.182;8.734;2023-04-25T13:45:01;100262.97;;;10.86;50.10
78014;BME280;67222;50.182;8.734;2023-04-25T13:47:27;100259.66;;;10.90;48.96
78014;BME280;67222;50.182;8.734;2023-04-25T13:49:52;100256.78;;;10.99;48.75
78014;BME280;67222;50.182;8.734;2023-04-25T13:52:18;100261.09;;;10.93;48.66
78014;BME280;67222;50.182;8.734;2023-04-25T13:54:43;100262.72;;;11.01;48.13
78014;BME280;67222;50.182;8.734;2023-04-25T13:57:09;100254.66;;;11.14;49.17
78014;BME280;67222;50.182;8.734;2023-04-25T13:59:36;100260.53;;;11.74;49.28
78014;BME280;67222;50.182;8.734;2023-04-25T14:02:01;100259.53;;;12.00;45.21
78014;BME280;67222;50.182;8.734;2023-04-25T14:04:27;100263.78;;;12.07;47.85
78014;BME280;67222;50.182;8.734;2023-04-25T14:06:52;100262.06;;;11.95;46.55
78014;BME280;67222;50.182;8.734;2023-04-25T14:09:19;100263.91;;;11.94;46.86
78014;BME280;67222;50.182;8.734;2023-04-25T14:11:46;100253.16;;;12.01;47.99
78014;BME280;67222;50.182;8.734;2023-04-25T14:14:11;100258.63;;;12.12;45.85
78014;BME280;67222;50.182;8.734;2023-04-25T14:16:37;100253.22;;;12.19;44.87
78014;BME280;67222;50.182;8.734;2023-04-25T14:19:03;100264.06;;;12.24;44.41
78014;BME280;67222;50.182;8.734;2023-04-25T14:21:29;100258.25;;;12.09;43.86
78014;BME280;67222;50.182;8.734;2023-04-25T14:23:54;100257.56;;;11.89;44.63
78014;BME280;67222;50.182;8.734;2023-04-25T14:26:19;100265.63;;;11.82;45.56
78014;BME280;67222;50.182;8.734;2023-04-25T14:28:45;100263.91;;;11.56;43.91
78014;BME280;67222;50.182;8.734;2023-04-25T14:31:11;100265.75;;;11.56;44.08
78014;BME280;67222;50.182;8.734;2023-04-25T14:33:36;100276.25;;;11.50;43.28
78014;BME280;67222;50.182;8.734;2023-04-25T14:36:04;100271.34;;;11.47;44.37
78014;BME280;67222;50.182;8.734;2023-04-25T14:38:30;100272.84;;;11.37;43.29
78014;BME280;67222;50.182;8.734;2023-04-25T14:40:55;100271.81;;;11.38;43.92
78014;BME280;67222;50.182;8.734;2023-04-25T14:43:20;100280.41;;;11.40;45.44
78014;BME280;67222;50.182;8.734;2023-04-25T14:45:46;100283.28;;;11.45;44.72
78014;BME280;67222;50.182;8.734;2023-04-25T14:48:11;100278.56;;;11.40;43.29
78014;BME280;67222;50.182;8.734;2023-04-25T14:50:36;100285.94;;;11.45;45.68
78014;BME280;67222;50.182;8.734;2023-04-25T14:53:02;100288.25;;;11.35;44.46
78014;BME280;67222;50.182;8.734;2023-04-25T14:55:27;100294.00;;;11.32;45.11
78014;BME280;67222;50.182;8.734;2023-04-25T14:57:55;100290.50;;;11.31;46.19
78014;BME280;67222;50.182;8.734;2023-04-25T15:00:22;100298.16;;;11.21;44.98
78014;BME280;67222;50.182;8.734;2023-04-25T15:02:50;100300.66;;;11.09;47.03
78014;BME280;67222;50.182;8.734;2023-04-25T15:05:16;100303.16;;;10.98;47.07
78014;BME280;67222;50.182;8.734;2023-04-25T15:07:42;100300.69;;;10.89;46.66
78014;BME280;67222;50.182;8.734;2023-04-25T15:10:08;100309.31;;;10.91;47.14
78014;BME280;67222;50.182;8.734;2023-04-25T15:12:39;100304.81;;;10.85;46.24
78014;BME280;67222;50.182;8.734;2023-04-25T15:15:05;100308.13;;;10.81;45.66
78014;BME280;67222;50.182;8.734;2023-04-25T15:17:31;100315.91;;;10.82;44.22
78014;BME280;67222;50.182;8.734;2023-04-25T15:19:56;100316.34;;;10.79;45.45
78014;BME280;67222;50.182;8.734;2023-04-25T15:22:22;100329.25;;;10.82;43.59
78014;BME280;67222;50.182;8.734;2023-04-25T15:24:47;100325.75;;;10.88;47.62
78014;BME280;67222;50.182;8.734;2023-04-25T15:27:13;100317.13;;;11.00;47.49
78014;BME280;67222;50.182;8.734;2023-04-25T15:29:39;100321.56;;;11.12;43.97
78014;BME280;67222;50.182;8.734;2023-04-25T15:32:05;100318.91;;;11.19;44.52
78014;BME280;67222;50.182;8.734;2023-04-25T15:34:30;100320.50;;;11.27;43.99
78014;BME280;67222;50.182;8.734;2023-04-25T15:36:56;100317.16;;;11.44;46.89
78014;BME280;67222;50.182;8.734;2023-04-25T15:39:22;100323.09;;;11.53;45.77
78014;BME280;67222;50.182;8.734;2023-04-25T15:41:47;100326.16;;;11.57;45.03
78014;BME280;67222;50.182;8.734;2023-04-25T15:44:13;100312.41;;;11.53;45.88
78014;BME280;67222;50.182;8.734;2023-04-25T15:46:38;100317.09;;;11.58;47.12
78014;BME280;67222;50.182;8.734;2023-04-25T15:49:04;100316.84;;;11.66;45.89
78014;BME280;67222;50.182;8.734;2023-04-25T15:51:29;100315.38;;;11.70;45.77
78014;BME280;67222;50.182;8.734;2023-04-25T15:53:54;100322.34;;;11.77;46.37
78014;BME280;67222;50.182;8.734;2023-04-25T15:56:20;100308.97;;;11.84;45.99
78014;BME280;67222;50.182;8.734;2023-04-25T15:58:46;100317.34;;;11.94;48.45
78014;BME280;67222;50.182;8.734;2023-04-25T16:01:11;100312.81;;;11.95;46.01
78014;BME280;67222;50.182;8.734;2023-04-25T16:03:38;100312.59;;;11.96;44.85
78014;BME280;67222;50.182;8.734;2023-04-25T16:06:03;100315.13;;;11.91;46.12
78014;BME280;67222;50.182;8.734;2023-04-25T16:08:29;100313.47;;;11.90;44.70
78014;BME280;67222;50.182;8.734;2023-04-25T16:10:58;100311.06;;;11.75;46.23
78014;BME280;67222;50.182;8.734;2023-04-25T16:13:24;100310.34;;;11.55;46.04
78014;BME280;67222;50.182;8.734;2023-04-25T16:15:50;100314.78;;;11.68;44.10
78014;BME280;67222;50.182;8.734;2023-04-25T16:18:16;100314.06;;;11.54;45.28
78014;BME280;67222;50.182;8.734;2023-04-25T16:20:41;100318.22;;;11.37;44.78
78014;BME280;67222;50.182;8.734;2023-04-25T16:23:07;100314.56;;;11.25;44.99
78014;BME280;67222;50.182;8.734;2023-04-25T16:25:33;100322.38;;;11.26;43.99
78014;BME280;67222;50.182;8.734;2023-04-25T16:27:58;100326.50;;;11.22;45.27
78014;BME280;67222;50.182;8.734;2023-04-25T16:30:24;100331.84;;;11.09;44.50
78014;BME280;67222;50.182;8.734;2023-04-25T16:32:49;100332.31;;;10.99;48.53
78014;BME280;67222;50.182;8.734;2023-04-25T16:35:14;100335.97;;;11.05;47.65
78014;BME280;67222;50.182;8.734;2023-04-25T16:37:40;100332.69;;;11.03;47.85
78014;BME280;67222;50.182;8.734;2023-04-25T16:40:06;100337.63;;;10.99;45.72
78014;BME280;67222;50.182;8.734;2023-04-25T16:42:33;100345.84;;;10.78;48.58
78014;BME280;67222;50.182;8.734;2023-04-25T16:44:59;100345.25;;;10.76;48.41
78014;BME280;67222;50.182;8.734;2023-04-25T16:47:24;100346.69;;;10.72;47.55
78014;BME280;67222;50.182;8.734;2023-04-25T16:49:50;100341.97;;;10.67;46.94
78014;BME280;67222;50.182;8.734;2023-04-25T16:52:15;100345.47;;;10.54;46.92
78014;BME280;67222;50.182;8.734;2023-04-25T16:54:40;100360.84;;;10.46;48.92
78014;BME280;67222;50.182;8.734;2023-04-25T16:57:05;100352.44;;;10.49;47.73
78014;BME280;67222;50.182;8.734;2023-04-25T16:59:34;100352.03;;;10.45;47.06
78014;BME280;67222;50.182;8.734;2023-04-25T17:02:00;100354.47;;;10.40;47.22
78014;BME280;67222;50.182;8.734;2023-04-25T17:04:26;100354.50;;;10.47;45.74
78014;BME280;67222;50.182;8.734;2023-04-25T17:06:52;100353.47;;;10.48;47.13
78014;BME280;67222;50.182;8.734;2023-04-25T17:09:18;100357.16;;;10.53;45.32
78014;BME280;67222;50.182;8.734;2023-04-25T17:11:43;100360.00;;;10.58;47.60
78014;BME280;67222;50.182;8.734;2023-04-25T17:14:08;100353.25;;;10.49;48.52
78014;BME280;67222;50.182;8.734;2023-04-25T17:16:37;100365.16;;;10.60;47.62
78014;BME280;67222;50.182;8.734;2023-04-25T17:19:04;100369.66;;;10.53;48.47
78014;BME280;67222;50.182;8.734;2023-04-25T17:21:29;100374.59;;;10.56;46.99
78014;BME280;67222;50.182;8.734;2023-04-25T17:23:55;100368.84;;;10.66;46.12
78014;BME280;67222;50.182;8.734;2023-04-25T17:26:22;100373.34;;;10.52;46.02